Airport View

Enter AWOS ICAO identifier for current METAR.

ex. KFNL

KEWB 270053Z 00000KT 10SM BKN050 00/M02 A2972 RMK AO2 SLP065 T00001022 $

27 Jan 2020 01:13

Phone: 508-992-0195

Other Area AWOS: KTAN - KUUU - KPYM - KFMH

TAF KFMH 262321Z 2700/2724 27005KT P6SM FEW050 FM271300 25010G17KT P6SM BKN050 FM271400 25011G18KT P6SM BKN050 FM272300 28012KT P6SM SCT060